Terminal Aerodrome Forecast
Issued by NWS

Home | Current Version | Previous Version | Text Only | Print | Product List | Glossary On
Versions: 1 2 3 4 5 6 7 8 9 10 11 12 13 14 15 16 17 18 19 20
000
FTUS43 KGRB 181337 AAA
TAFCWA
TAF AMD
KCWA 181337Z 1814/1912 23009KT 5SM BR OVC003
     FM181430 23009KT P6SM OVC005
      TEMPO 1816/1817 SCT006
     FM181700 23009KT P6SM SKC
     FM190000 22008KT P6SM SCT150
     FM190600 23006KT 3SM BR SCT070 SCT150
     FM190800 23003KT 1/2SM FG BKN002 BKN070=

USA.gov is the U.S. government's official web portal to all federal, state and local government web resources and services.